Terminal Aerodrome Forecast
Issued by NWS Huntsville, AL

Home | Current Version | Previous Version | Text Only | Print | Product List | Glossary On
Versions: 1 2 3 4 5 6 7 8 9 10 11 12 13 14 15 16
000
FTUS44 KHUN 241739
TAFMSL
TAF
KMSL 241739Z 2418/2518 20012G20KT P6SM OVC040
     FM250500 19014G25KT 5SM TSRA OVC025CB
     FM250900 25012KT P6SM VCSH OVC015
     FM251100 32008KT P6SM VCSH FEW015 OVC050=

USA.gov is the U.S. government's official web portal to all federal, state and local government web resources and services.